sensor_id;sensor_type;location;lat;lon;timestamp;temperature;humidity
20231;DHT22;10274;49.022;9.338;2022-11-20T00:02:09;4.80;99.90
20231;DHT22;10274;49.022;9.338;2022-11-20T00:04:36;4.70;99.90
20231;DHT22;10274;49.022;9.338;2022-11-20T00:07:04;4.60;99.90
20231;DHT22;10274;49.022;9.338;2022-11-20T00:09:31;4.60;99.90
20231;DHT22;10274;49.022;9.338;2022-11-20T00:11:58;4.60;99.90
20231;DHT22;10274;49.022;9.338;2022-11-20T00:14:24;4.70;99.90
20231;DHT22;10274;49.022;9.338;2022-11-20T00:16:51;4.80;99.90
20231;DHT22;10274;49.022;9.338;2022-11-20T00:19:18;4.80;99.90
20231;DHT22;10274;49.022;9.338;2022-11-20T00:21:44;4.80;99.90
20231;DHT22;10274;49.022;9.338;2022-11-20T00:24:13;4.80;99.90
20231;DHT22;10274;49.022;9.338;2022-11-20T00:26:40;4.80;99.90
20231;DHT22;10274;49.022;9.338;2022-11-20T00:29:09;4.80;99.90
20231;DHT22;10274;49.022;9.338;2022-11-20T00:31:36;4.80;99.90
20231;DHT22;10274;49.022;9.338;2022-11-20T00:34:02;4.80;99.90
20231;DHT22;10274;49.022;9.338;2022-11-20T00:36:32;4.80;99.90
20231;DHT22;10274;49.022;9.338;2022-11-20T00:38:59;4.80;99.90
20231;DHT22;10274;49.022;9.338;2022-11-20T00:41:29;4.90;99.90
20231;DHT22;10274;49.022;9.338;2022-11-20T00:43:56;4.80;99.90
20231;DHT22;10274;49.022;9.338;2022-11-20T00:46:23;4.90;99.90
20231;DHT22;10274;49.022;9.338;2022-11-20T00:48:51;4.90;99.90
20231;DHT22;10274;49.022;9.338;2022-11-20T00:51:19;4.80;99.90
20231;DHT22;10274;49.022;9.338;2022-11-20T00:53:46;4.80;99.90
20231;DHT22;10274;49.022;9.338;2022-11-20T00:56:14;4.80;99.90
20231;DHT22;10274;49.022;9.338;2022-11-20T00:58:44;4.80;99.90
20231;DHT22;10274;49.022;9.338;2022-11-20T01:01:13;4.90;99.90
20231;DHT22;10274;49.022;9.338;2022-11-20T01:03:41;4.90;99.90
20231;DHT22;10274;49.022;9.338;2022-11-20T01:06:11;4.90;99.90
20231;DHT22;10274;49.022;9.338;2022-11-20T01:08:38;5.00;99.90
20231;DHT22;10274;49.022;9.338;2022-11-20T01:11:07;5.10;99.90
20231;DHT22;10274;49.022;9.338;2022-11-20T01:13:35;5.00;99.90
20231;DHT22;10274;49.022;9.338;2022-11-20T01:16:07;5.10;99.90
20231;DHT22;10274;49.022;9.338;2022-11-20T01:18:35;5.10;99.90
20231;DHT22;10274;49.022;9.338;2022-11-20T01:21:04;5.10;99.90
20231;DHT22;10274;49.022;9.338;2022-11-20T01:23:32;5.00;99.90
20231;DHT22;10274;49.022;9.338;2022-11-20T01:26:00;5.00;99.90
20231;DHT22;10274;49.022;9.338;2022-11-20T01:28:28;5.10;99.90
20231;DHT22;10274;49.022;9.338;2022-11-20T01:30:55;5.10;99.90
20231;DHT22;10274;49.022;9.338;2022-11-20T01:33:23;5.20;99.90
20231;DHT22;10274;49.022;9.338;2022-11-20T01:35:50;5.10;99.90
20231;DHT22;10274;49.022;9.338;2022-11-20T01:38:17;5.20;99.90
20231;DHT22;10274;49.022;9.338;2022-11-20T01:40:45;5.10;99.90
20231;DHT22;10274;49.022;9.338;2022-11-20T01:43:16;5.20;99.90
20231;DHT22;10274;49.022;9.338;2022-11-20T01:46:13;5.30;99.90
20231;DHT22;10274;49.022;9.338;2022-11-20T01:48:48;5.20;99.90
20231;DHT22;10274;49.022;9.338;2022-11-20T01:51:23;5.20;99.90
20231;DHT22;10274;49.022;9.338;2022-11-20T01:53:53;5.30;99.90
20231;DHT22;10274;49.022;9.338;2022-11-20T01:56:21;5.30;99.90
20231;DHT22;10274;49.022;9.338;2022-11-20T01:58:50;5.30;99.90
20231;DHT22;10274;49.022;9.338;2022-11-20T02:01:20;5.30;99.90
20231;DHT22;10274;49.022;9.338;2022-11-20T02:03:49;5.40;99.90
20231;DHT22;10274;49.022;9.338;2022-11-20T02:06:21;5.40;99.90
20231;DHT22;10274;49.022;9.338;2022-11-20T02:08:49;5.40;99.90
20231;DHT22;10274;49.022;9.338;2022-11-20T02:11:16;5.50;99.90
20231;DHT22;10274;49.022;9.338;2022-11-20T02:13:43;5.50;99.90
20231;DHT22;10274;49.022;9.338;2022-11-20T02:16:16;5.60;99.90
20231;DHT22;10274;49.022;9.338;2022-11-20T02:18:44;5.60;99.90
20231;DHT22;10274;49.022;9.338;2022-11-20T02:21:20;5.60;99.90
20231;DHT22;10274;49.022;9.338;2022-11-20T02:24:08;5.60;99.90
20231;DHT22;10274;49.022;9.338;2022-11-20T02:26:41;5.60;99.90
20231;DHT22;10274;49.022;9.338;2022-11-20T02:29:09;5.60;99.90
20231;DHT22;10274;49.022;9.338;2022-11-20T02:31:38;5.60;99.90
20231;DHT22;10274;49.022;9.338;2022-11-20T02:34:05;5.60;99.90
20231;DHT22;10274;49.022;9.338;2022-11-20T02:36:33;5.70;99.90
20231;DHT22;10274;49.022;9.338;2022-11-20T02:39:01;5.70;99.90
20231;DHT22;10274;49.022;9.338;2022-11-20T02:41:34;5.70;99.90
20231;DHT22;10274;49.022;9.338;2022-11-20T02:44:01;5.70;99.90
20231;DHT22;10274;49.022;9.338;2022-11-20T02:46:29;5.60;99.90
20231;DHT22;10274;49.022;9.338;2022-11-20T02:48:56;5.60;99.90
20231;DHT22;10274;49.022;9.338;2022-11-20T02:51:23;5.60;99.90
20231;DHT22;10274;49.022;9.338;2022-11-20T02:53:50;5.60;99.90
20231;DHT22;10274;49.022;9.338;2022-11-20T02:56:17;5.70;99.90
20231;DHT22;10274;49.022;9.338;2022-11-20T02:58:45;5.70;99.90
20231;DHT22;10274;49.022;9.338;2022-11-20T03:01:12;5.80;99.90
20231;DHT22;10274;49.022;9.338;2022-11-20T03:03:39;5.80;99.90
20231;DHT22;10274;49.022;9.338;2022-11-20T03:06:06;5.90;99.90
20231;DHT22;10274;49.022;9.338;2022-11-20T03:08:33;5.90;99.90
20231;DHT22;10274;49.022;9.338;2022-11-20T03:11:02;6.00;99.90
20231;DHT22;10274;49.022;9.338;2022-11-20T03:13:29;6.00;99.90
20231;DHT22;10274;49.022;9.338;2022-11-20T03:15:57;6.00;99.90
20231;DHT22;10274;49.022;9.338;2022-11-20T03:18:27;6.10;99.90
20231;DHT22;10274;49.022;9.338;2022-11-20T03:20:57;6.10;99.90
20231;DHT22;10274;49.022;9.338;2022-11-20T03:23:24;6.10;99.90
20231;DHT22;10274;49.022;9.338;2022-11-20T03:25:51;6.20;99.90
20231;DHT22;10274;49.022;9.338;2022-11-20T03:28:17;6.20;99.90
20231;DHT22;10274;49.022;9.338;2022-11-20T03:30:44;6.30;99.90
20231;DHT22;10274;49.022;9.338;2022-11-20T03:33:12;6.30;99.90
20231;DHT22;10274;49.022;9.338;2022-11-20T03:35:39;6.30;99.90
20231;DHT22;10274;49.022;9.338;2022-11-20T03:38:05;6.40;99.90
20231;DHT22;10274;49.022;9.338;2022-11-20T03:40:33;6.50;99.90
20231;DHT22;10274;49.022;9.338;2022-11-20T03:43:01;6.50;99.90
20231;DHT22;10274;49.022;9.338;2022-11-20T03:45:27;6.60;91.70
20231;DHT22;10274;49.022;9.338;2022-11-20T03:47:54;6.60;86.20
20231;DHT22;10274;49.022;9.338;2022-11-20T03:50:22;6.70;39.40
20231;DHT22;10274;49.022;9.338;2022-11-20T03:52:49;6.60;91.40
20231;DHT22;10274;49.022;9.338;2022-11-20T03:55:15;6.50;99.90
20231;DHT22;10274;49.022;9.338;2022-11-20T03:57:42;6.50;99.90
20231;DHT22;10274;49.022;9.338;2022-11-20T04:00:10;6.40;99.90
20231;DHT22;10274;49.022;9.338;2022-11-20T04:02:37;6.40;96.50
20231;DHT22;10274;49.022;9.338;2022-11-20T04:05:04;6.40;72.40
20231;DHT22;10274;49.022;9.338;2022-11-20T04:07:33;6.40;58.60
20231;DHT22;10274;49.022;9.338;2022-11-20T04:10:00;6.30;53.20
20231;DHT22;10274;49.022;9.338;2022-11-20T04:12:27;6.30;69.80
20231;DHT22;10274;49.022;9.338;2022-11-20T04:14:54;6.30;53.20
20231;DHT22;10274;49.022;9.338;2022-11-20T04:17:20;6.30;62.30
20231;DHT22;10274;49.022;9.338;2022-11-20T04:19:47;6.30;59.50
20231;DHT22;10274;49.022;9.338;2022-11-20T04:22:14;6.40;31.30
20231;DHT22;10274;49.022;9.338;2022-11-20T04:24:42;6.40;28.70
20231;DHT22;10274;49.022;9.338;2022-11-20T04:27:08;6.30;60.00
20231;DHT22;10274;49.022;9.338;2022-11-20T04:29:35;6.30;35.10
20231;DHT22;10274;49.022;9.338;2022-11-20T04:32:02;6.30;35.50
20231;DHT22;10274;49.022;9.338;2022-11-20T04:34:28;6.40;40.70
20231;DHT22;10274;49.022;9.338;2022-11-20T04:36:55;6.40;39.10
20231;DHT22;10274;49.022;9.338;2022-11-20T04:39:22;6.40;32.10
20231;DHT22;10274;49.022;9.338;2022-11-20T04:41:50;6.40;28.30
20231;DHT22;10274;49.022;9.338;2022-11-20T04:44:37;6.40;29.00
20231;DHT22;10274;49.022;9.338;2022-11-20T04:47:04;6.40;32.30
20231;DHT22;10274;49.022;9.338;2022-11-20T04:49:31;6.40;23.70
20231;DHT22;10274;49.022;9.338;2022-11-20T04:51:59;6.50;33.00
20231;DHT22;10274;49.022;9.338;2022-11-20T04:54:26;6.50;13.40
20231;DHT22;10274;49.022;9.338;2022-11-20T04:56:54;6.50;34.90
20231;DHT22;10274;49.022;9.338;2022-11-20T04:59:21;6.40;39.30
20231;DHT22;10274;49.022;9.338;2022-11-20T05:01:47;6.50;18.80
20231;DHT22;10274;49.022;9.338;2022-11-20T05:04:14;6.50;38.00
20231;DHT22;10274;49.022;9.338;2022-11-20T05:06:41;6.50;15.00
20231;DHT22;10274;49.022;9.338;2022-11-20T05:09:07;6.50;26.10
20231;DHT22;10274;49.022;9.338;2022-11-20T05:11:34;6.60;10.90
20231;DHT22;10274;49.022;9.338;2022-11-20T05:14:02;6.60;3.90
20231;DHT22;10274;49.022;9.338;2022-11-20T05:16:29;6.60;1.00
20231;DHT22;10274;49.022;9.338;2022-11-20T05:18:56;6.60;13.80
20231;DHT22;10274;49.022;9.338;2022-11-20T05:21:23;6.70;1.00
20231;DHT22;10274;49.022;9.338;2022-11-20T05:23:49;6.70;1.00
20231;DHT22;10274;49.022;9.338;2022-11-20T05:26:17;6.70;1.00
20231;DHT22;10274;49.022;9.338;2022-11-20T05:28:45;6.70;1.00
20231;DHT22;10274;49.022;9.338;2022-11-20T05:31:15;6.80;1.00
20231;DHT22;10274;49.022;9.338;2022-11-20T05:33:43;6.80;1.00
20231;DHT22;10274;49.022;9.338;2022-11-20T05:36:12;6.90;1.00
20231;DHT22;10274;49.022;9.338;2022-11-20T05:38:39;6.80;1.00
20231;DHT22;10274;49.022;9.338;2022-11-20T05:41:08;6.90;1.00
20231;DHT22;10274;49.022;9.338;2022-11-20T05:43:35;6.90;1.00
20231;DHT22;10274;49.022;9.338;2022-11-20T05:46:03;6.90;1.00
20231;DHT22;10274;49.022;9.338;2022-11-20T05:48:31;6.90;1.00
20231;DHT22;10274;49.022;9.338;2022-11-20T05:50:58;6.90;1.00
20231;DHT22;10274;49.022;9.338;2022-11-20T05:53:25;6.90;1.00
20231;DHT22;10274;49.022;9.338;2022-11-20T05:55:59;6.90;1.00
20231;DHT22;10274;49.022;9.338;2022-11-20T05:58:26;6.90;1.00
20231;DHT22;10274;49.022;9.338;2022-11-20T06:00:52;7.00;1.00
20231;DHT22;10274;49.022;9.338;2022-11-20T06:03:19;6.90;1.00
20231;DHT22;10274;49.022;9.338;2022-11-20T06:05:47;7.10;1.00
20231;DHT22;10274;49.022;9.338;2022-11-20T06:08:14;7.10;1.00
20231;DHT22;10274;49.022;9.338;2022-11-20T06:10:41;7.00;1.00
20231;DHT22;10274;49.022;9.338;2022-11-20T06:13:08;7.00;1.00
20231;DHT22;10274;49.022;9.338;2022-11-20T06:15:34;6.90;1.00
20231;DHT22;10274;49.022;9.338;2022-11-20T06:18:01;6.70;1.00
20231;DHT22;10274;49.022;9.338;2022-11-20T06:20:28;6.60;15.00
20231;DHT22;10274;49.022;9.338;2022-11-20T06:22:56;6.50;25.50
20231;DHT22;10274;49.022;9.338;2022-11-20T06:25:22;6.40;16.60
20231;DHT22;10274;49.022;9.338;2022-11-20T06:27:49;6.40;17.90
20231;DHT22;10274;49.022;9.338;2022-11-20T06:30:16;6.30;21.80
20231;DHT22;10274;49.022;9.338;2022-11-20T06:32:43;6.30;21.90
20231;DHT22;10274;49.022;9.338;2022-11-20T06:35:10;6.30;21.40
20231;DHT22;10274;49.022;9.338;2022-11-20T06:37:36;6.30;14.10
20231;DHT22;10274;49.022;9.338;2022-11-20T06:40:06;6.30;26.30
20231;DHT22;10274;49.022;9.338;2022-11-20T06:42:33;6.30;31.30
20231;DHT22;10274;49.022;9.338;2022-11-20T06:44:59;6.40;37.50
20231;DHT22;10274;49.022;9.338;2022-11-20T06:47:26;6.30;19.00
20231;DHT22;10274;49.022;9.338;2022-11-20T06:49:53;6.30;29.40
20231;DHT22;10274;49.022;9.338;2022-11-20T06:52:19;6.30;31.30
20231;DHT22;10274;49.022;9.338;2022-11-20T06:54:46;6.30;41.60
20231;DHT22;10274;49.022;9.338;2022-11-20T06:57:14;6.40;34.60
20231;DHT22;10274;49.022;9.338;2022-11-20T06:59:41;6.40;31.80
20231;DHT22;10274;49.022;9.338;2022-11-20T07:02:09;6.40;44.60
20231;DHT22;10274;49.022;9.338;2022-11-20T07:04:36;6.30;62.00
20231;DHT22;10274;49.022;9.338;2022-11-20T07:07:03;6.30;74.50
20231;DHT22;10274;49.022;9.338;2022-11-20T07:09:29;6.40;88.30
20231;DHT22;10274;49.022;9.338;2022-11-20T07:11:56;6.40;92.60
20231;DHT22;10274;49.022;9.338;2022-11-20T07:14:24;6.30;76.70
20231;DHT22;10274;49.022;9.338;2022-11-20T07:16:51;6.40;68.70
20231;DHT22;10274;49.022;9.338;2022-11-20T07:19:18;6.40;79.70
20231;DHT22;10274;49.022;9.338;2022-11-20T07:21:44;6.30;92.90
20231;DHT22;10274;49.022;9.338;2022-11-20T07:24:11;6.40;99.10
20231;DHT22;10274;49.022;9.338;2022-11-20T07:26:38;6.30;99.90
20231;DHT22;10274;49.022;9.338;2022-11-20T07:29:04;6.30;95.60
20231;DHT22;10274;49.022;9.338;2022-11-20T07:31:32;6.20;99.90
20231;DHT22;10274;49.022;9.338;2022-11-20T07:33:59;6.20;99.90
20231;DHT22;10274;49.022;9.338;2022-11-20T07:36:26;6.20;99.90
20231;DHT22;10274;49.022;9.338;2022-11-20T07:38:53;6.20;99.90
20231;DHT22;10274;49.022;9.338;2022-11-20T07:41:19;6.20;99.90
20231;DHT22;10274;49.022;9.338;2022-11-20T07:43:46;6.20;99.90
20231;DHT22;10274;49.022;9.338;2022-11-20T07:46:13;6.20;99.90
20231;DHT22;10274;49.022;9.338;2022-11-20T07:48:41;6.20;99.90
20231;DHT22;10274;49.022;9.338;2022-11-20T07:51:07;6.20;99.90
20231;DHT22;10274;49.022;9.338;2022-11-20T07:53:34;6.20;99.90
20231;DHT22;10274;49.022;9.338;2022-11-20T07:56:02;6.30;99.90
20231;DHT22;10274;49.022;9.338;2022-11-20T07:58:29;6.30;99.90
20231;DHT22;10274;49.022;9.338;2022-11-20T08:00:58;6.30;99.90
20231;DHT22;10274;49.022;9.338;2022-11-20T08:03:24;6.30;99.90
20231;DHT22;10274;49.022;9.338;2022-11-20T08:05:53;6.30;99.90
20231;DHT22;10274;49.022;9.338;2022-11-20T08:08:19;6.40;99.90
20231;DHT22;10274;49.022;9.338;2022-11-20T08:10:46;6.50;99.90
20231;DHT22;10274;49.022;9.338;2022-11-20T08:13:13;6.50;99.90
20231;DHT22;10274;49.022;9.338;2022-11-20T08:15:57;6.60;99.90
20231;DHT22;10274;49.022;9.338;2022-11-20T08:18:24;6.60;99.90
20231;DHT22;10274;49.022;9.338;2022-11-20T08:20:52;6.60;98.50
20231;DHT22;10274;49.022;9.338;2022-11-20T08:23:19;6.70;92.50
20231;DHT22;10274;49.022;9.338;2022-11-20T08:25:49;6.60;99.90
20231;DHT22;10274;49.022;9.338;2022-11-20T08:28:16;6.70;99.80
20231;DHT22;10274;49.022;9.338;2022-11-20T08:30:43;6.70;98.80
20231;DHT22;10274;49.022;9.338;2022-11-20T08:33:11;6.60;99.90
20231;DHT22;10274;49.022;9.338;2022-11-20T08:35:38;6.60;99.90
20231;DHT22;10274;49.022;9.338;2022-11-20T08:38:09;6.60;99.90
20231;DHT22;10274;49.022;9.338;2022-11-20T08:40:36;6.60;99.90
20231;DHT22;10274;49.022;9.338;2022-11-20T08:43:02;6.60;99.90
20231;DHT22;10274;49.022;9.338;2022-11-20T08:45:29;6.60;99.90
20231;DHT22;10274;49.022;9.338;2022-11-20T08:47:59;6.60;99.90
20231;DHT22;10274;49.022;9.338;2022-11-20T08:50:26;6.50;99.90
20231;DHT22;10274;49.022;9.338;2022-11-20T08:52:53;6.60;99.90
20231;DHT22;10274;49.022;9.338;2022-11-20T08:55:21;6.50;99.90
20231;DHT22;10274;49.022;9.338;2022-11-20T08:57:48;6.50;99.90
20231;DHT22;10274;49.022;9.338;2022-11-20T09:00:16;6.60;99.90
20231;DHT22;10274;49.022;9.338;2022-11-20T09:02:42;6.60;99.90
20231;DHT22;10274;49.022;9.338;2022-11-20T09:05:09;6.60;99.90
20231;DHT22;10274;49.022;9.338;2022-11-20T09:07:36;6.70;99.90
20231;DHT22;10274;49.022;9.338;2022-11-20T09:10:03;6.70;99.90
20231;DHT22;10274;49.022;9.338;2022-11-20T09:12:31;6.70;99.90
20231;DHT22;10274;49.022;9.338;2022-11-20T09:14:58;6.80;99.90
20231;DHT22;10274;49.022;9.338;2022-11-20T09:17:25;6.70;99.90
20231;DHT22;10274;49.022;9.338;2022-11-20T09:19:51;6.70;99.90
20231;DHT22;10274;49.022;9.338;2022-11-20T09:22:18;6.70;99.90
20231;DHT22;10274;49.022;9.338;2022-11-20T09:24:45;6.70;99.90
20231;DHT22;10274;49.022;9.338;2022-11-20T09:27:11;6.60;99.90
20231;DHT22;10274;49.022;9.338;2022-11-20T09:29:39;6.60;99.90
20231;DHT22;10274;49.022;9.338;2022-11-20T09:32:06;6.70;99.90
20231;DHT22;10274;49.022;9.338;2022-11-20T09:34:33;6.60;99.90
20231;DHT22;10274;49.022;9.338;2022-11-20T09:37:00;6.70;99.90
20231;DHT22;10274;49.022;9.338;2022-11-20T09:39:26;6.60;99.90
20231;DHT22;10274;49.022;9.338;2022-11-20T09:42:12;6.70;99.90
20231;DHT22;10274;49.022;9.338;2022-11-20T09:44:51;6.80;99.90
20231;DHT22;10274;49.022;9.338;2022-11-20T09:47:28;6.80;99.90
20231;DHT22;10274;49.022;9.338;2022-11-20T09:50:06;6.90;99.90
20231;DHT22;10274;49.022;9.338;2022-11-20T09:52:44;7.00;99.90
20231;DHT22;10274;49.022;9.338;2022-11-20T09:55:14;7.10;99.90
20231;DHT22;10274;49.022;9.338;2022-11-20T09:57:43;7.10;99.90
20231;DHT22;10274;49.022;9.338;2022-11-20T10:00:13;7.20;99.90
20231;DHT22;10274;49.022;9.338;2022-11-20T10:02:44;7.30;99.90
20231;DHT22;10274;49.022;9.338;2022-11-20T10:05:18;7.30;99.90
20231;DHT22;10274;49.022;9.338;2022-11-20T10:07:51;7.40;99.90
20231;DHT22;10274;49.022;9.338;2022-11-20T10:10:29;7.40;99.90
20231;DHT22;10274;49.022;9.338;2022-11-20T10:13:07;7.60;99.90
20231;DHT22;10274;49.022;9.338;2022-11-20T10:15:43;7.50;99.90
20231;DHT22;10274;49.022;9.338;2022-11-20T10:18:23;7.60;99.90
20231;DHT22;10274;49.022;9.338;2022-11-20T10:21:01;7.60;99.90
20231;DHT22;10274;49.022;9.338;2022-11-20T10:26:39;7.60;99.90
20231;DHT22;10274;49.022;9.338;2022-11-20T10:29:11;7.70;99.90
20231;DHT22;10274;49.022;9.338;2022-11-20T10:31:42;7.60;99.90
20231;DHT22;10274;49.022;9.338;2022-11-20T10:34:17;7.70;99.90
20231;DHT22;10274;49.022;9.338;2022-11-20T10:36:48;7.60;99.90
20231;DHT22;10274;49.022;9.338;2022-11-20T10:39:20;7.70;99.90
20231;DHT22;10274;49.022;9.338;2022-11-20T10:41:51;7.60;99.90
20231;DHT22;10274;49.022;9.338;2022-11-20T10:44:21;7.60;99.90
20231;DHT22;10274;49.022;9.338;2022-11-20T10:47:05;7.70;99.90
20231;DHT22;10274;49.022;9.338;2022-11-20T10:49:36;7.60;99.00
20231;DHT22;10274;49.022;9.338;2022-11-20T10:52:10;7.70;99.90
20231;DHT22;10274;49.022;9.338;2022-11-20T10:54:43;7.70;99.90
20231;DHT22;10274;49.022;9.338;2022-11-20T10:57:20;7.60;99.90
20231;DHT22;10274;49.022;9.338;2022-11-20T11:00:00;7.70;99.90
20231;DHT22;10274;49.022;9.338;2022-11-20T11:02:35;7.70;99.90
20231;DHT22;10274;49.022;9.338;2022-11-20T11:05:12;7.70;99.90
20231;DHT22;10274;49.022;9.338;2022-11-20T11:07:41;7.70;99.90
20231;DHT22;10274;49.022;9.338;2022-11-20T11:10:15;7.70;99.90
20231;DHT22;10274;49.022;9.338;2022-11-20T11:12:44;7.60;99.90
20231;DHT22;10274;49.022;9.338;2022-11-20T11:15:14;7.60;98.40
20231;DHT22;10274;49.022;9.338;2022-11-20T11:17:47;7.60;93.20
20231;DHT22;10274;49.022;9.338;2022-11-20T11:20:18;7.60;92.20
20231;DHT22;10274;49.022;9.338;2022-11-20T11:22:47;7.60;96.50
20231;DHT22;10274;49.022;9.338;2022-11-20T11:25:35;7.60;98.00
20231;DHT22;10274;49.022;9.338;2022-11-20T11:28:04;7.60;95.80
20231;DHT22;10274;49.022;9.338;2022-11-20T11:30:41;7.70;78.30
20231;DHT22;10274;49.022;9.338;2022-11-20T11:33:17;7.70;86.40
20231;DHT22;10274;49.022;9.338;2022-11-20T11:35:46;7.60;96.30
20231;DHT22;10274;49.022;9.338;2022-11-20T11:38:16;7.60;92.60
20231;DHT22;10274;49.022;9.338;2022-11-20T11:40:43;7.70;97.10
20231;DHT22;10274;49.022;9.338;2022-11-20T11:43:18;7.70;99.90
20231;DHT22;10274;49.022;9.338;2022-11-20T11:46:04;7.70;96.10
20231;DHT22;10274;49.022;9.338;2022-11-20T11:48:36;7.70;99.90
20231;DHT22;10274;49.022;9.338;2022-11-20T11:51:08;7.80;99.90
20231;DHT22;10274;49.022;9.338;2022-11-20T11:53:40;7.90;95.70
20231;DHT22;10274;49.022;9.338;2022-11-20T11:56:09;8.00;99.10
20231;DHT22;10274;49.022;9.338;2022-11-20T11:58:43;8.00;79.10
20231;DHT22;10274;49.022;9.338;2022-11-20T12:01:20;8.00;43.90
20231;DHT22;10274;49.022;9.338;2022-11-20T12:03:58;8.30;34.80
20231;DHT22;10274;49.022;9.338;2022-11-20T12:06:28;8.60;1.00
20231;DHT22;10274;49.022;9.338;2022-11-20T12:09:01;8.60;27.20
20231;DHT22;10274;49.022;9.338;2022-11-20T12:11:33;8.60;6.70
20231;DHT22;10274;49.022;9.338;2022-11-20T12:14:07;8.60;6.40
20231;DHT22;10274;49.022;9.338;2022-11-20T12:16:37;8.40;1.00
20231;DHT22;10274;49.022;9.338;2022-11-20T12:19:11;8.40;21.90
20231;DHT22;10274;49.022;9.338;2022-11-20T12:21:47;8.40;7.70
20231;DHT22;10274;49.022;9.338;2022-11-20T12:24:40;8.40;19.20
20231;DHT22;10274;49.022;9.338;2022-11-20T12:30:08;8.50;1.00
20231;DHT22;10274;49.022;9.338;2022-11-20T12:32:48;8.60;4.80
20231;DHT22;10274;49.022;9.338;2022-11-20T12:35:42;8.70;1.00
20231;DHT22;10274;49.022;9.338;2022-11-20T12:38:31;8.90;1.00
20231;DHT22;10274;49.022;9.338;2022-11-20T12:41:06;9.90;1.00
20231;DHT22;10274;49.022;9.338;2022-11-20T12:43:46;10.20;99.90
20231;DHT22;10274;49.022;9.338;2022-11-20T12:46:36;11.40;1.00
20231;DHT22;10274;49.022;9.338;2022-11-20T12:49:17;10.90;99.90
20231;DHT22;10274;49.022;9.338;2022-11-20T12:52:15;10.50;1.00
20231;DHT22;10274;49.022;9.338;2022-11-20T12:55:08;9.90;1.00
20231;DHT22;10274;49.022;9.338;2022-11-20T12:57:40;10.80;1.00
20231;DHT22;10274;49.022;9.338;2022-11-20T13:00:15;12.00;1.00
20231;DHT22;10274;49.022;9.338;2022-11-20T13:03:11;10.90;99.90
20231;DHT22;10274;49.022;9.338;2022-11-20T13:05:50;10.00;41.10
20231;DHT22;10274;49.022;9.338;2022-11-20T13:08:23;9.50;99.90
20231;DHT22;10274;49.022;9.338;2022-11-20T13:10:56;9.40;99.90
20231;DHT22;10274;49.022;9.338;2022-11-20T13:13:31;10.30;99.90
20231;DHT22;10274;49.022;9.338;2022-11-20T13:16:04;9.70;1.00
20231;DHT22;10274;49.022;9.338;2022-11-20T13:18:37;9.40;99.90
20231;DHT22;10274;49.022;9.338;2022-11-20T13:21:14;10.30;1.00
20231;DHT22;10274;49.022;9.338;2022-11-20T13:23:43;11.00;1.00
20231;DHT22;10274;49.022;9.338;2022-11-20T13:26:17;12.30;1.00
20231;DHT22;10274;49.022;9.338;2022-11-20T13:28:46;12.50;1.00
20231;DHT22;10274;49.022;9.338;2022-11-20T13:31:29;12.60;99.90
20231;DHT22;10274;49.022;9.338;2022-11-20T13:33:57;13.00;2.20
20231;DHT22;10274;49.022;9.338;2022-11-20T13:36:26;12.70;1.00
20231;DHT22;10274;49.022;9.338;2022-11-20T13:38:56;12.70;1.00
20231;DHT22;10274;49.022;9.338;2022-11-20T13:41:24;13.20;1.00
20231;DHT22;10274;49.022;9.338;2022-11-20T13:43:57;11.60;1.00
20231;DHT22;10274;49.022;9.338;2022-11-20T13:46:35;10.30;99.90
20231;DHT22;10274;49.022;9.338;2022-11-20T13:49:07;9.70;1.00
20231;DHT22;10274;49.022;9.338;2022-11-20T13:51:40;9.60;1.00
20231;DHT22;10274;49.022;9.338;2022-11-20T13:54:39;9.40;99.90
20231;DHT22;10274;49.022;9.338;2022-11-20T13:57:25;9.40;99.90
20231;DHT22;10274;49.022;9.338;2022-11-20T13:59:57;9.10;99.90
20231;DHT22;10274;49.022;9.338;2022-11-20T14:02:29;9.00;99.90
20231;DHT22;10274;49.022;9.338;2022-11-20T14:04:58;8.90;99.90
20231;DHT22;10274;49.022;9.338;2022-11-20T14:07:31;8.80;1.00
20231;DHT22;10274;49.022;9.338;2022-11-20T14:10:00;8.70;1.00
20231;DHT22;10274;49.022;9.338;2022-11-20T14:12:29;8.50;1.00
20231;DHT22;10274;49.022;9.338;2022-11-20T14:14:56;8.20;1.00
20231;DHT22;10274;49.022;9.338;2022-11-20T14:17:29;8.20;99.90
20231;DHT22;10274;49.022;9.338;2022-11-20T14:19:59;8.00;1.00
20231;DHT22;10274;49.022;9.338;2022-11-20T14:22:28;8.00;1.00
20231;DHT22;10274;49.022;9.338;2022-11-20T14:25:05;8.10;1.00
20231;DHT22;10274;49.022;9.338;2022-11-20T14:27:34;8.20;99.90
20231;DHT22;10274;49.022;9.338;2022-11-20T14:30:02;8.30;1.00
20231;DHT22;10274;49.022;9.338;2022-11-20T14:32:31;8.30;1.00
20231;DHT22;10274;49.022;9.338;2022-11-20T14:35:01;8.30;1.00
20231;DHT22;10274;49.022;9.338;2022-11-20T14:37:33;8.30;99.90
20231;DHT22;10274;49.022;9.338;2022-11-20T14:40:00;8.30;99.90
20231;DHT22;10274;49.022;9.338;2022-11-20T14:42:29;8.30;99.90
20231;DHT22;10274;49.022;9.338;2022-11-20T14:44:57;8.30;1.00
20231;DHT22;10274;49.022;9.338;2022-11-20T14:47:27;8.30;1.00
20231;DHT22;10274;49.022;9.338;2022-11-20T14:49:57;8.30;1.00
20231;DHT22;10274;49.022;9.338;2022-11-20T14:52:25;8.30;1.00
20231;DHT22;10274;49.022;9.338;2022-11-20T14:54:53;8.30;99.90
20231;DHT22;10274;49.022;9.338;2022-11-20T14:57:23;8.30;99.90
20231;DHT22;10274;49.022;9.338;2022-11-20T15:00:04;8.20;99.90
20231;DHT22;10274;49.022;9.338;2022-11-20T15:02:31;8.30;99.90
20231;DHT22;10274;49.022;9.338;2022-11-20T15:04:59;8.20;99.90
20231;DHT22;10274;49.022;9.338;2022-11-20T15:07:30;8.10;1.00
20231;DHT22;10274;49.022;9.338;2022-11-20T15:10:02;8.00;99.90
20231;DHT22;10274;49.022;9.338;2022-11-20T15:12:30;8.00;1.00
20231;DHT22;10274;49.022;9.338;2022-11-20T15:14:58;7.90;99.90
20231;DHT22;10274;49.022;9.338;2022-11-20T15:17:25;7.90;99.90
20231;DHT22;10274;49.022;9.338;2022-11-20T15:19:52;7.70;99.90
20231;DHT22;10274;49.022;9.338;2022-11-20T15:22:19;7.70;1.00
20231;DHT22;10274;49.022;9.338;2022-11-20T15:24:46;7.60;1.00
20231;DHT22;10274;49.022;9.338;2022-11-20T15:27:13;7.60;1.00
20231;DHT22;10274;49.022;9.338;2022-11-20T15:29:41;7.60;99.90
20231;DHT22;10274;49.022;9.338;2022-11-20T15:32:09;7.60;99.90
20231;DHT22;10274;49.022;9.338;2022-11-20T15:34:36;7.70;99.90
20231;DHT22;10274;49.022;9.338;2022-11-20T15:37:02;7.50;1.00
20231;DHT22;10274;49.022;9.338;2022-11-20T15:39:29;7.40;1.00
20231;DHT22;10274;49.022;9.338;2022-11-20T15:41:56;7.50;1.00
20231;DHT22;10274;49.022;9.338;2022-11-20T15:44:22;7.40;1.00
20231;DHT22;10274;49.022;9.338;2022-11-20T15:46:49;7.30;99.90
20231;DHT22;10274;49.022;9.338;2022-11-20T15:49:17;7.40;1.00
20231;DHT22;10274;49.022;9.338;2022-11-20T15:51:48;7.40;1.00
20231;DHT22;10274;49.022;9.338;2022-11-20T15:54:17;7.20;99.90
20231;DHT22;10274;49.022;9.338;2022-11-20T15:56:45;7.10;1.00
20231;DHT22;10274;49.022;9.338;2022-11-20T15:59:12;6.70;1.00
20231;DHT22;10274;49.022;9.338;2022-11-20T16:01:40;6.70;1.00
20231;DHT22;10274;49.022;9.338;2022-11-20T16:04:10;6.40;1.00
20231;DHT22;10274;49.022;9.338;2022-11-20T16:06:38;6.10;1.00
20231;DHT22;10274;49.022;9.338;2022-11-20T16:09:05;6.10;1.00
20231;DHT22;10274;49.022;9.338;2022-11-20T16:11:32;5.90;1.00
20231;DHT22;10274;49.022;9.338;2022-11-20T16:14:00;5.80;22.40